Time;durP1;ratioP1;P1;durP2;ratioP2;P2;SDS_P1;SDS_P2;PMS_P1;PMS_P2;Temp;Humidity;BMP_temperature;BMP_pressure;BME280_temperature;BME280_humidity;BME280_pressure;Samples;Min_cycle;Max_cycle;Signal;HPM_P1;HPM_P2
2021/09/06 00:00:41;;;;;;;5.47;4.47;;;15.50;99.90;;;;;;5092766;28;20208;-63
2021/09/06 00:03:08;;;;;;;5.63;4.70;;;15.50;99.90;;;;;;5092821;28;20204;-64
2021/09/06 00:05:35;;;;;;;7.87;5.03;;;15.50;99.90;;;;;;5092754;28;20228;-64
2021/09/06 00:08:01;;;;;;;6.77;5.20;;;15.40;99.90;;;;;;5092845;28;20208;-64
2021/09/06 00:10:37;;;;;;;5.70;4.67;;;15.40;99.90;;;;;;5092623;28;20204;-64
2021/09/06 00:13:05;;;;;;;5.40;4.90;;;15.40;99.90;;;;;;5092828;28;20253;-64
2021/09/06 00:15:32;;;;;;;5.53;4.77;;;15.30;99.90;;;;;;5092299;28;20226;-64
2021/09/06 00:18:00;;;;;;;6.10;4.40;;;15.30;99.90;;;;;;5092271;28;20257;-64
2021/09/06 00:20:28;;;;;;;8.00;4.73;;;15.30;99.90;;;;;;5092621;28;20200;-64
2021/09/06 00:22:55;;;;;;;5.27;4.73;;;15.20;99.90;;;;;;5092457;28;20205;-64
2021/09/06 00:25:21;;;;;;;5.43;4.90;;;15.30;99.90;;;;;;5092108;28;20679;-64
2021/09/06 00:27:49;;;;;;;7.90;4.60;;;15.20;99.90;;;;;;5092341;28;20212;-65
2021/09/06 00:30:16;;;;;;;5.63;5.03;;;15.10;99.90;;;;;;5092482;28;20253;-65
2021/09/06 00:32:43;;;;;;;7.47;4.97;;;15.00;99.90;;;;;;5092862;28;20211;-65
2021/09/06 00:35:11;;;;;;;6.23;4.90;;;15.10;99.90;;;;;;5092340;28;20306;-64
2021/09/06 00:37:38;;;;;;;7.30;4.67;;;15.00;99.90;;;;;;5092495;28;20232;-64
2021/09/06 00:40:06;;;;;;;5.80;5.03;;;14.90;99.90;;;;;;5092288;28;20686;-64
2021/09/06 00:42:33;;;;;;;6.37;4.63;;;14.90;99.90;;;;;;5092134;28;20222;-64
2021/09/06 00:44:59;;;;;;;6.30;4.77;;;14.90;99.90;;;;;;5091910;28;20295;-65
2021/09/06 00:47:26;;;;;;;6.30;4.90;;;14.90;99.90;;;;;;5092182;28;20228;-64
2021/09/06 00:49:53;;;;;;;7.17;5.13;;;14.80;99.90;;;;;;5091803;28;20570;-64
2021/09/06 00:52:21;;;;;;;5.87;5.27;;;14.80;99.90;;;;;;5092162;28;20679;-64
2021/09/06 00:54:48;;;;;;;7.13;5.03;;;14.70;99.90;;;;;;5091843;28;20220;-64
2021/09/06 00:57:15;;;;;;;7.03;4.57;;;14.70;99.90;;;;;;5092373;28;20231;-64
2021/09/06 00:59:41;;;;;;;6.13;4.63;;;14.70;99.90;;;;;;5091942;28;20208;-64
2021/09/06 01:02:08;;;;;;;6.73;5.87;;;14.70;99.90;;;;;;5092016;28;20215;-64
2021/09/06 01:04:35;;;;;;;7.10;4.63;;;14.60;99.90;;;;;;5091719;28;20568;-64
2021/09/06 01:07:02;;;;;;;7.33;4.80;;;14.60;99.90;;;;;;5092101;28;20305;-64
2021/09/06 01:09:30;;;;;;;6.03;5.00;;;14.60;99.90;;;;;;5092036;28;20231;-64
2021/09/06 01:11:56;;;;;;;8.67;5.30;;;14.50;99.90;;;;;;5091042;28;20211;-64
2021/09/06 01:14:23;;;;;;;8.17;5.00;;;14.50;99.90;;;;;;5091611;28;20224;-63
2021/09/06 01:16:50;;;;;;;5.27;4.63;;;14.50;99.90;;;;;;5091764;28;20251;-63
2021/09/06 01:19:17;;;;;;;7.93;5.10;;;14.50;99.90;;;;;;5091852;28;20236;-64
2021/09/06 01:21:44;;;;;;;7.90;6.37;;;14.50;99.90;;;;;;5091578;28;20200;-64
2021/09/06 01:24:10;;;;;;;7.50;6.70;;;14.50;99.90;;;;;;5091280;28;20215;-64
2021/09/06 01:26:38;;;;;;;7.73;5.43;;;14.50;99.90;;;;;;5091319;28;20236;-63
2021/09/06 01:29:08;;;;;;;16.03;11.33;;;14.50;99.90;;;;;;5091699;28;20204;-64
2021/09/06 01:31:34;;;;;;;17.73;11.13;;;14.50;99.90;;;;;;5091640;28;20204;-64
2021/09/06 01:34:01;;;;;;;7.63;5.47;;;14.50;99.90;;;;;;5091283;28;20211;-64
2021/09/06 01:36:28;;;;;;;10.03;7.47;;;14.50;99.90;;;;;;5091284;28;20227;-64
2021/09/06 01:38:55;;;;;;;7.40;4.70;;;14.50;99.90;;;;;;5091233;28;20585;-64
2021/09/06 01:41:21;;;;;;;7.57;6.30;;;14.50;99.90;;;;;;5091123;28;20208;-63
2021/09/06 01:43:49;;;;;;;9.20;5.60;;;14.50;99.90;;;;;;5091474;28;20261;-65
2021/09/06 01:46:16;;;;;;;5.73;5.07;;;14.60;99.90;;;;;;5091349;28;20236;-64
2021/09/06 01:48:43;;;;;;;5.83;5.10;;;14.50;99.90;;;;;;5091330;28;20261;-64
2021/09/06 01:51:10;;;;;;;7.77;5.43;;;14.50;99.90;;;;;;5091127;28;20208;-64
2021/09/06 01:53:36;;;;;;;11.53;7.77;;;14.50;99.90;;;;;;5090765;28;20208;-64
2021/09/06 01:56:03;;;;;;;12.00;7.90;;;14.50;99.90;;;;;;5090905;28;20581;-64
2021/09/06 01:58:30;;;;;;;7.73;6.07;;;14.40;99.90;;;;;;5090879;28;20200;-64
2021/09/06 02:00:58;;;;;;;9.60;7.23;;;14.40;99.90;;;;;;5091009;28;20208;-64
2021/09/06 02:03:25;;;;;;;7.83;5.93;;;14.30;99.90;;;;;;5090860;28;20204;-64
2021/09/06 02:05:51;;;;;;;6.70;5.63;;;14.40;99.90;;;;;;5090780;28;20227;-64
2021/09/06 02:08:18;;;;;;;6.77;5.80;;;14.40;99.90;;;;;;5090817;28;20208;-63
2021/09/06 02:10:45;;;;;;;6.33;5.30;;;14.40;99.90;;;;;;5090787;28;20231;-63
2021/09/06 02:13:11;;;;;;;7.97;5.37;;;14.40;99.90;;;;;;5090805;28;20205;-63
2021/09/06 02:15:38;;;;;;;6.53;5.53;;;14.30;99.90;;;;;;5090540;28;20228;-64
2021/09/06 02:18:06;;;;;;;7.17;5.30;;;14.30;99.90;;;;;;5090692;28;20257;-64
2021/09/06 02:20:33;;;;;;;6.23;5.20;;;14.20;99.90;;;;;;5090829;28;20208;-64
2021/09/06 02:22:59;;;;;;;7.43;5.83;;;14.20;99.90;;;;;;5091191;28;20208;-64
2021/09/06 02:25:26;;;;;;;5.93;5.33;;;14.20;99.90;;;;;;5093208;28;20206;-64
2021/09/06 02:27:54;;;;;;;8.30;5.70;;;14.10;99.90;;;;;;5094945;28;20204;-64
2021/09/06 02:30:20;;;;;;;5.97;5.17;;;14.10;99.90;;;;;;5094869;28;20204;-64
2021/09/06 02:32:47;;;;;;;6.30;5.10;;;14.10;99.90;;;;;;5094823;28;20207;-64
2021/09/06 02:35:15;;;;;;;6.60;5.53;;;14.00;99.90;;;;;;5094646;28;20227;-64
2021/09/06 02:37:42;;;;;;;7.63;5.50;;;14.00;99.90;;;;;;5094636;28;20261;-64
2021/09/06 02:40:12;;;;;;;6.80;6.10;;;14.00;99.90;;;;;;5094793;28;20212;-64
2021/09/06 02:42:38;;;;;;;7.70;6.17;;;14.00;99.90;;;;;;5094588;28;20277;-64
2021/09/06 02:45:07;;;;;;;9.00;6.13;;;13.90;99.90;;;;;;5094558;28;20230;-64
2021/09/06 02:47:33;;;;;;;14.40;9.33;;;13.90;99.90;;;;;;5094333;28;20230;-64
2021/09/06 02:50:02;;;;;;;22.70;14.00;;;13.90;99.90;;;;;;5094412;28;20212;-64
2021/09/06 02:52:30;;;;;;;8.20;6.47;;;13.90;99.90;;;;;;5094832;28;20212;-64
2021/09/06 02:54:57;;;;;;;13.27;9.17;;;13.80;99.90;;;;;;5094357;28;20223;-64
2021/09/06 02:57:24;;;;;;;11.77;7.10;;;13.80;99.90;;;;;;5094315;28;20231;-64
2021/09/06 02:59:51;;;;;;;8.27;6.73;;;13.80;99.90;;;;;;5094134;28;20257;-64
2021/09/06 03:02:18;;;;;;;15.37;8.57;;;13.80;99.90;;;;;;5094044;28;20240;-64
2021/09/06 03:04:44;;;;;;;12.07;7.97;;;13.80;99.90;;;;;;5094163;28;20557;-64
2021/09/06 03:07:11;;;;;;;5.93;5.23;;;13.70;99.90;;;;;;5094306;28;20232;-64
2021/09/06 03:09:39;;;;;;;7.17;5.90;;;13.70;99.90;;;;;;5093993;28;20671;-64
2021/09/06 03:12:07;;;;;;;11.73;8.57;;;13.60;99.90;;;;;;5093893;28;20687;-64
2021/09/06 03:14:34;;;;;;;9.70;6.33;;;13.50;99.90;;;;;;5093820;28;20574;-64
2021/09/06 03:17:00;;;;;;;17.80;8.97;;;13.50;99.90;;;;;;5093639;28;20228;-64
2021/09/06 03:19:27;;;;;;;11.37;8.13;;;13.40;99.90;;;;;;5093822;28;20249;-64
2021/09/06 03:21:54;;;;;;;11.60;7.40;;;13.40;99.90;;;;;;5093980;28;20285;-64
2021/09/06 03:24:21;;;;;;;8.43;5.70;;;13.30;99.90;;;;;;5093630;28;20207;-64
2021/09/06 03:26:49;;;;;;;10.77;7.20;;;13.30;99.90;;;;;;5108205;22;20236;-62
2021/09/06 03:29:16;;;;;;;8.37;5.77;;;13.20;99.90;;;;;;5074537;28;20654;-62
2021/09/06 03:31:42;;;;;;;18.63;11.93;;;13.10;99.90;;;;;;5074878;28;20216;-62
2021/09/06 03:34:09;;;;;;;11.67;7.97;;;13.00;99.90;;;;;;5074402;28;20586;-62
2021/09/06 03:36:36;;;;;;;6.87;5.43;;;13.00;99.90;;;;;;5073716;28;20233;-62
2021/09/06 03:39:03;;;;;;;10.03;6.80;;;13.00;99.90;;;;;;5073763;28;20660;-62
2021/09/06 03:41:30;;;;;;;12.00;7.77;;;13.00;99.90;;;;;;5074174;28;20648;-63
2021/09/06 03:43:58;;;;;;;6.97;5.60;;;12.90;99.90;;;;;;5074548;28;20205;-62
2021/09/06 03:46:25;;;;;;;8.43;6.70;;;12.90;99.90;;;;;;5074338;28;20248;-63
2021/09/06 03:48:52;;;;;;;6.63;5.30;;;12.80;99.90;;;;;;5074100;28;20216;-62
2021/09/06 03:51:18;;;;;;;6.97;5.60;;;12.80;99.90;;;;;;5074115;28;20216;-62
2021/09/06 03:53:45;;;;;;;7.40;5.60;;;12.80;99.90;;;;;;5074583;28;20691;-62
2021/09/06 03:56:12;;;;;;;11.77;7.27;;;12.70;99.90;;;;;;5073814;28;20243;-62
2021/09/06 03:58:38;;;;;;;20.13;11.30;;;12.70;99.90;;;;;;5073556;28;20213;-62
2021/09/06 04:01:06;;;;;;;18.43;11.30;;;12.70;99.90;;;;;;5073903;28;20241;-62
2021/09/06 04:03:33;;;;;;;42.60;21.50;;;12.80;99.90;;;;;;5073639;28;20300;-60
2021/09/06 04:06:00;;;;;;;8.60;6.93;;;12.80;99.90;;;;;;5073804;28;20229;-62
2021/09/06 04:08:27;;;;;;;10.07;6.80;;;12.80;99.90;;;;;;5073742;28;20218;-62
2021/09/06 04:10:54;;;;;;;10.57;7.60;;;12.70;99.90;;;;;;5073386;28;20255;-62
2021/09/06 04:13:21;;;;;;;15.30;8.60;;;12.80;99.90;;;;;;5073174;28;20212;-62
2021/09/06 04:15:48;;;;;;;20.97;10.47;;;12.70;99.90;;;;;;5073427;28;20597;-62
2021/09/06 04:18:16;;;;;;;34.63;15.63;;;12.70;99.90;;;;;;5073338;28;20205;-62
2021/09/06 04:20:43;;;;;;;17.83;9.70;;;12.80;99.90;;;;;;5073174;28;20629;-62
2021/09/06 04:23:10;;;;;;;41.13;18.03;;;12.80;99.90;;;;;;5073122;28;20204;-62
2021/09/06 04:25:37;;;;;;;17.53;9.43;;;12.80;99.90;;;;;;5072781;28;20676;-61
2021/09/06 04:28:04;;;;;;;18.83;10.93;;;12.80;99.90;;;;;;5073308;28;20216;-62
2021/09/06 04:30:31;;;;;;;40.70;20.77;;;12.70;99.90;;;;;;5073286;28;20207;-62
2021/09/06 04:32:58;;;;;;;31.13;26.40;;;12.80;99.90;;;;;;5073619;28;20204;-62
2021/09/06 04:35:26;;;;;;;18.83;12.90;;;12.80;99.90;;;;;;5073178;28;20220;-62
2021/09/06 04:37:53;;;;;;;71.20;52.90;;;12.80;99.90;;;;;;5072888;28;20221;-62
2021/09/06 04:40:19;;;;;;;21.03;17.20;;;12.70;99.90;;;;;;5072708;28;20209;-62
2021/09/06 04:42:46;;;;;;;30.27;27.20;;;12.70;99.90;;;;;;5073220;28;20205;-62
2021/09/06 04:45:13;;;;;;;10.57;8.20;;;12.70;99.90;;;;;;5073520;28;20200;-62
2021/09/06 04:47:40;;;;;;;21.20;15.90;;;12.80;99.90;;;;;;5072035;28;20491;-62
2021/09/06 04:50:07;;;;;;;11.13;8.63;;;12.80;99.90;;;;;;5073145;28;20574;-62
2021/09/06 04:52:35;;;;;;;10.50;9.13;;;12.80;99.90;;;;;;5073473;28;20680;-62
2021/09/06 04:55:02;;;;;;;14.63;10.40;;;12.90;99.90;;;;;;5073559;28;20216;-62
2021/09/06 04:57:29;;;;;;;9.17;7.93;;;12.90;99.90;;;;;;5072512;28;20251;-62
2021/09/06 04:59:56;;;;;;;10.77;7.87;;;12.90;99.90;;;;;;5072156;28;20216;-62
2021/09/06 05:02:22;;;;;;;8.93;6.27;;;12.90;99.90;;;;;;5072583;28;20209;-62
2021/09/06 05:04:49;;;;;;;11.60;8.53;;;13.00;99.90;;;;;;5072850;28;20213;-62
2021/09/06 05:07:16;;;;;;;9.93;7.77;;;13.00;99.90;;;;;;5072130;28;20221;-62
2021/09/06 05:09:44;;;;;;;10.73;7.03;;;13.00;99.90;;;;;;5072576;28;20278;-62
2021/09/06 05:12:11;;;;;;;9.60;7.30;;;13.10;99.90;;;;;;5072649;28;20223;-62
2021/09/06 05:14:37;;;;;;;7.17;5.83;;;13.10;99.90;;;;;;5071797;28;20205;-62
2021/09/06 05:17:04;;;;;;;13.87;11.07;;;13.20;99.90;;;;;;5072058;28;20233;-62
2021/09/06 05:19:31;;;;;;;9.43;6.00;;;13.30;99.90;;;;;;5072310;28;20212;-62
2021/09/06 05:21:58;;;;;;;7.93;5.73;;;13.30;99.90;;;;;;5072033;28;20278;-62
2021/09/06 05:24:25;;;;;;;7.40;5.87;;;13.40;99.90;;;;;;5072223;28;20205;-62
2021/09/06 05:26:53;;;;;;;11.53;6.30;;;13.40;99.90;;;;;;5072002;28;20604;-62
2021/09/06 05:29:19;;;;;;;7.47;6.07;;;13.50;99.90;;;;;;5072042;28;20208;-62
2021/09/06 05:31:46;;;;;;;8.07;6.03;;;13.60;99.90;;;;;;5071845;28;20208;-62
2021/09/06 05:34:13;;;;;;;9.57;6.23;;;13.60;99.90;;;;;;5071910;28;20205;-62
2021/09/06 05:36:39;;;;;;;7.33;6.30;;;13.70;99.90;;;;;;5072402;28;20710;-62
2021/09/06 05:39:06;;;;;;;9.33;7.00;;;13.80;99.90;;;;;;5072005;28;20208;-62
2021/09/06 05:41:33;;;;;;;10.00;6.30;;;13.90;99.90;;;;;;5072456;28;20201;-62
2021/09/06 05:44:04;;;;;;;9.37;6.10;;;14.10;99.90;;;;;;5072043;28;20232;-62
2021/09/06 05:46:31;;;;;;;6.80;5.60;;;14.80;99.90;;;;;;5071745;28;20730;-62
2021/09/06 05:48:58;;;;;;;6.93;5.53;;;16.10;99.90;;;;;;5071939;28;20477;-62
2021/09/06 05:51:25;;;;;;;10.67;5.60;;;17.50;99.90;;;;;;5072473;28;20201;-62
2021/09/06 05:53:52;;;;;;;11.15;4.82;;;18.90;99.90;;;;;;5072557;28;20205;-62
2021/09/06 05:56:20;;;;;;;8.73;6.13;;;20.20;99.90;;;;;;5074729;28;20229;-63
2021/09/06 05:58:47;;;;;;;15.13;5.53;;;21.40;99.90;;;;;;5075203;28;20211;-62
2021/09/06 06:01:15;;;;;;;21.60;6.75;;;22.30;99.90;;;;;;5075373;28;20223;-63
2021/09/06 06:03:42;;;;;;;30.63;7.00;;;23.00;99.90;;;;;;5074090;28;20479;-63
2021/09/06 06:06:09;;;;;;;27.92;7.82;;;23.60;99.90;;;;;;5072483;28;20227;-62
2021/09/06 06:08:35;;;;;;;21.23;6.45;;;24.00;99.90;;;;;;5072195;28;20710;-62
2021/09/06 06:11:02;;;;;;;13.95;6.05;;;24.30;99.90;;;;;;5073135;28;20212;-62
2021/09/06 06:13:29;;;;;;;8.27;5.90;;;24.70;99.90;;;;;;5072307;28;20227;-63
2021/09/06 06:15:55;;;;;;;8.07;6.07;;;25.20;99.90;;;;;;5071797;28;20236;-62
2021/09/06 06:18:24;;;;;;;12.63;6.82;;;25.60;99.90;;;;;;5072567;28;20211;-63
2021/09/06 06:20:50;;;;;;;7.82;6.00;;;26.20;99.90;;;;;;5072248;28;20212;-62
2021/09/06 06:23:17;;;;;;;8.52;6.47;;;26.80;98.60;;;;;;5072021;28;20695;-63
2021/09/06 06:25:44;;;;;;;6.72;5.07;;;27.40;96.40;;;;;;5072097;28;20209;-63
2021/09/06 06:28:10;;;;;;;8.35;4.88;;;28.00;94.50;;;;;;5073071;28;20213;-64
2021/09/06 06:30:37;;;;;;;7.07;5.28;;;28.40;92.70;;;;;;5072467;28;20205;-63
2021/09/06 06:33:04;;;;;;;7.30;4.65;;;28.70;90.70;;;;;;5071714;28;20226;-63
2021/09/06 06:35:32;;;;;;;7.65;5.20;;;29.10;89.10;;;;;;5071209;28;20588;-63
2021/09/06 06:37:59;;;;;;;6.32;5.20;;;29.50;86.80;;;;;;5071178;28;20229;-67
2021/09/06 06:40:25;;;;;;;7.50;4.53;;;29.90;84.80;;;;;;5071167;28;20201;-63
2021/09/06 06:42:52;;;;;;;6.47;5.38;;;30.40;81.20;;;;;;5071204;28;20604;-63
2021/09/06 06:45:19;;;;;;;7.55;4.60;;;30.50;78.90;;;;;;5071432;28;20209;-62
2021/09/06 06:47:46;;;;;;;6.65;5.07;;;30.50;78.00;;;;;;5071349;28;20232;-62
2021/09/06 06:50:14;;;;;;;9.73;4.72;;;30.50;77.20;;;;;;5071172;28;20216;-62
2021/09/06 06:52:42;;;;;;;6.75;5.00;;;30.70;77.10;;;;;;5070767;28;20734;-63
2021/09/06 06:55:10;;;;;;;7.97;4.35;;;31.00;74.60;;;;;;5070411;28;20211;-63
2021/09/06 06:57:36;;;;;;;7.70;5.05;;;31.30;73.50;;;;;;5070236;28;20224;-62
2021/09/06 07:00:04;;;;;;;5.82;4.50;;;31.70;72.30;;;;;;5070988;28;20224;-62
2021/09/06 07:02:31;;;;;;;7.13;4.47;;;32.40;70.00;;;;;;5071517;28;20208;-67
2021/09/06 07:04:57;;;;;;;7.00;4.82;;;33.00;67.40;;;;;;5070856;28;20205;-64
2021/09/06 07:07:24;;;;;;;10.43;5.30;;;33.30;65.80;;;;;;5070825;28;20232;-61
2021/09/06 07:09:52;;;;;;;8.13;5.10;;;33.70;65.80;;;;;;5070930;28;20201;-68
2021/09/06 07:12:19;;;;;;;6.78;5.00;;;34.10;64.10;;;;;;5074292;28;20612;-61
2021/09/06 07:14:46;;;;;;;6.78;4.80;;;34.30;62.80;;;;;;5074581;28;20212;-62
2021/09/06 07:17:12;;;;;;;5.90;4.70;;;34.70;61.00;;;;;;5074248;28;20225;-62
2021/09/06 07:19:40;;;;;;;6.63;4.75;;;35.20;58.70;;;;;;5074434;28;20631;-62
2021/09/06 07:22:06;;;;;;;5.68;4.43;;;34.90;59.00;;;;;;5074433;28;20201;-63
2021/09/06 07:24:33;;;;;;;8.73;4.63;;;34.20;59.60;;;;;;5074519;28;20205;-62
2021/09/06 07:27:01;;;;;;;6.63;4.95;;;33.10;62.80;;;;;;5073936;28;20240;-62
2021/09/06 07:29:28;;;;;;;8.60;4.80;;;33.30;63.20;;;;;;5073799;28;20668;-60
2021/09/06 07:31:54;;;;;;;7.03;4.60;;;34.10;61.60;;;;;;5074249;28;20212;-63
2021/09/06 07:34:21;;;;;;;5.93;5.10;;;35.00;59.10;;;;;;5073718;28;20213;-64
2021/09/06 07:36:48;;;;;;;5.82;5.07;;;35.50;57.60;;;;;;5073566;28;20715;-63
2021/09/06 07:39:16;;;;;;;6.75;4.68;;;35.90;56.70;;;;;;5073477;28;20204;-63
2021/09/06 07:41:43;;;;;;;8.77;4.70;;;36.50;55.80;;;;;;5073772;28;20201;-63
2021/09/06 07:44:11;;;;;;;10.27;5.00;;;37.00;55.20;;;;;;5073922;28;20217;-62
2021/09/06 07:46:38;;;;;;;8.23;4.63;;;37.40;54.30;;;;;;5074026;28;20221;-63
2021/09/06 07:49:05;;;;;;;9.23;4.93;;;37.70;53.50;;;;;;5073792;28;20215;-62
2021/09/06 07:51:31;;;;;;;7.40;5.13;;;37.10;52.30;;;;;;5074447;28;20208;-63
2021/09/06 07:54:00;;;;;;;8.55;5.18;;;35.80;55.00;;;;;;5073481;28;20208;-64
2021/09/06 07:56:26;;;;;;;7.30;4.40;;;35.20;56.80;;;;;;5073652;28;20236;-65
2021/09/06 07:58:53;;;;;;;6.95;4.60;;;35.60;54.80;;;;;;5073948;28;20255;-66
2021/09/06 08:01:21;;;;;;;8.13;4.50;;;35.90;54.80;;;;;;5073645;28;20241;-65
2021/09/06 08:03:48;;;;;;;6.30;4.75;;;36.10;53.80;;;;;;5073729;28;20212;-65
2021/09/06 08:06:15;;;;;;;4.95;4.45;;;35.70;53.20;;;;;;5073457;28;20224;-65
2021/09/06 08:08:41;;;;;;;6.93;4.60;;;34.60;54.40;;;;;;5074026;28;20653;-66
2021/09/06 08:11:08;;;;;;;5.35;4.82;;;33.00;56.30;;;;;;5073573;28;20288;-66
2021/09/06 08:13:35;;;;;;;6.15;4.68;;;31.60;58.80;;;;;;5073374;28;20595;-66
2021/09/06 08:16:01;;;;;;;5.40;4.90;;;30.40;61.80;;;;;;5073520;28;20731;-66
2021/09/06 08:18:29;;;;;;;6.10;5.13;;;29.30;64.00;;;;;;5074169;28;20229;-66
2021/09/06 08:20:56;;;;;;;5.70;4.50;;;28.40;64.70;;;;;;5073938;28;20208;-66
2021/09/06 08:23:23;;;;;;;5.60;4.57;;;27.70;67.00;;;;;;5073797;28;20223;-63
2021/09/06 08:25:50;;;;;;;7.32;4.55;;;27.20;67.90;;;;;;5073319;28;20216;-65
2021/09/06 08:28:16;;;;;;;6.10;4.43;;;26.50;69.80;;;;;;5072971;28;20399;-65
2021/09/06 08:30:44;;;;;;;6.88;4.93;;;25.90;71.90;;;;;;5073491;28;20212;-65
2021/09/06 08:33:10;;;;;;;7.43;4.50;;;25.60;73.80;;;;;;5073204;28;20209;-65
2021/09/06 08:35:39;;;;;;;8.20;4.60;;;25.20;74.50;;;;;;5072765;28;20209;-65
2021/09/06 08:38:05;;;;;;;6.88;4.85;;;24.90;75.80;;;;;;5072711;28;20693;-64
2021/09/06 08:40:32;;;;;;;8.68;4.72;;;24.50;76.30;;;;;;5073052;28;20205;-65
2021/09/06 08:43:02;;;;;;;8.20;5.07;;;24.30;77.40;;;;;;5072940;28;20212;-65
2021/09/06 08:45:29;;;;;;;5.72;4.80;;;24.10;79.10;;;;;;5072856;28;20216;-66
2021/09/06 08:47:56;;;;;;;6.53;5.20;;;23.80;77.00;;;;;;5072585;28;20592;-65
2021/09/06 08:50:23;;;;;;;6.43;4.93;;;23.70;78.20;;;;;;5072832;28;20209;-65
2021/09/06 08:52:51;;;;;;;5.80;4.65;;;23.60;78.60;;;;;;5073189;28;20208;-64
2021/09/06 08:55:18;;;;;;;5.93;4.88;;;23.50;78.80;;;;;;5072798;28;20221;-65
2021/09/06 08:57:45;;;;;;;6.72;5.45;;;23.50;80.60;;;;;;5072784;28;20225;-65
2021/09/06 09:00:12;;;;;;;7.32;5.10;;;23.40;81.30;;;;;;5072647;28;20215;-65
2021/09/06 09:02:41;;;;;;;7.47;4.95;;;23.50;82.60;;;;;;5072765;28;20205;-66
2021/09/06 09:05:10;;;;;;;5.93;4.65;;;23.60;81.50;;;;;;5072570;28;20247;-65
2021/09/06 09:07:37;;;;;;;6.15;5.00;;;23.80;81.60;;;;;;5073056;28;20228;-66
2021/09/06 09:10:09;;;;;;;6.10;4.63;;;23.90;80.50;;;;;;5073147;28;20258;-65
2021/09/06 09:12:38;;;;;;;5.65;4.82;;;24.00;80.50;;;;;;5073526;28;20216;-64
2021/09/06 09:15:07;;;;;;;6.90;4.63;;;24.00;81.80;;;;;;5073011;28;20209;-64
2021/09/06 09:17:34;;;;;;;5.13;4.63;;;24.10;79.80;;;;;;5072610;28;20229;-63
2021/09/06 09:20:04;;;;;;;7.28;4.95;;;24.20;78.00;;;;;;5072890;28;20215;-65
2021/09/06 09:22:34;;;;;;;6.97;5.00;;;24.20;79.50;;;;;;5073304;28;20702;-65
2021/09/06 09:25:04;;;;;;;7.85;5.05;;;24.20;79.50;;;;;;5073142;28;20212;-62
2021/09/06 09:27:34;;;;;;;7.88;5.25;;;24.20;80.10;;;;;;5093690;22;20232;-63
2021/09/06 09:30:01;;;;;;;7.18;5.05;;;24.20;82.00;;;;;;5071437;28;20212;-64
2021/09/06 09:32:28;;;;;;;7.28;5.60;;;24.40;79.70;;;;;;5071446;28;20217;-66
2021/09/06 09:34:55;;;;;;;5.53;4.97;;;24.40;78.40;;;;;;5070920;28;20201;-66
2021/09/06 09:37:28;;;;;;;7.43;5.13;;;24.50;77.70;;;;;;5070712;28;20244;-67
2021/09/06 09:39:58;;;;;;;7.00;5.07;;;24.70;76.10;;;;;;5071037;28;20212;-64
2021/09/06 09:42:26;;;;;;;5.90;4.78;;;24.70;76.60;;;;;;5071321;28;20570;-64
2021/09/06 09:44:55;;;;;;;7.28;5.00;;;24.90;76.40;;;;;;5071192;28;20693;-66
2021/09/06 09:47:25;;;;;;;6.20;4.72;;;25.00;75.60;;;;;;5070989;28;20225;-66
2021/09/06 09:49:54;;;;;;;6.75;5.00;;;25.00;76.80;;;;;;5070821;28;20247;-66
2021/09/06 09:52:22;;;;;;;5.70;5.10;;;25.10;76.40;;;;;;5070843;28;20213;-65
2021/09/06 09:54:52;;;;;;;5.88;4.72;;;25.20;74.60;;;;;;5070578;28;20201;-68
2021/09/06 09:57:20;;;;;;;5.78;4.80;;;25.20;74.10;;;;;;5070578;28;20231;-67
2021/09/06 09:59:47;;;;;;;4.93;4.43;;;25.40;74.50;;;;;;5071491;28;20212;-66
2021/09/06 10:02:19;;;;;;;6.57;4.88;;;25.40;74.80;;;;;;5071165;28;20216;-67
2021/09/06 10:04:52;;;;;;;5.68;5.15;;;25.50;74.90;;;;;;5070751;28;20227;-68
2021/09/06 10:07:21;;;;;;;5.57;5.07;;;25.60;75.40;;;;;;5070703;28;20224;-64
2021/09/06 10:09:48;;;;;;;6.60;4.47;;;25.80;74.30;;;;;;5071141;28;20209;-65
2021/09/06 10:12:19;;;;;;;6.88;5.45;;;26.00;75.00;;;;;;5071391;28;20209;-65
2021/09/06 10:14:51;;;;;;;6.75;5.07;;;26.00;75.30;;;;;;5070927;28;20212;-66
2021/09/06 10:17:34;;;;;;;6.45;5.07;;;26.00;74.50;;;;;;5070783;28;20225;-65
2021/09/06 10:20:05;;;;;;;6.07;4.75;;;26.00;75.00;;;;;;5070584;28;20630;-65
2021/09/06 10:22:32;;;;;;;5.20;4.70;;;26.20;74.60;;;;;;5070712;28;20205;-65
2021/09/06 10:25:01;;;;;;;5.47;4.95;;;26.20;74.30;;;;;;5070633;28;20694;-65
2021/09/06 10:27:29;;;;;;;5.80;4.55;;;26.20;74.60;;;;;;5070577;28;20237;-66
2021/09/06 10:30:00;;;;;;;5.55;4.90;;;26.10;74.40;;;;;;5070557;28;20205;-65
2021/09/06 10:32:37;;;;;;;6.40;4.90;;;26.20;74.60;;;;;;5070425;28;20243;-65
2021/09/06 10:35:06;;;;;;;5.70;4.65;;;26.10;75.30;;;;;;5070743;28;20242;-69
2021/09/06 10:37:36;;;;;;;6.25;5.22;;;26.30;75.50;;;;;;5070449;28;20306;-65
2021/09/06 10:40:04;;;;;;;5.78;4.88;;;26.50;75.10;;;;;;5070233;28;20209;-65
2021/09/06 10:42:32;;;;;;;5.68;5.07;;;26.60;75.40;;;;;;5070104;28;20215;-65
2021/09/06 10:45:00;;;;;;;6.82;5.28;;;26.80;74.80;;;;;;5070154;28;20205;-66
2021/09/06 10:47:27;;;;;;;5.97;4.65;;;26.90;74.60;;;;;;5074393;28;20217;-65
2021/09/06 10:49:56;;;;;;;6.07;5.00;;;27.00;75.10;;;;;;5074335;28;20277;-65
2021/09/06 10:52:26;;;;;;;5.93;4.90;;;27.00;75.80;;;;;;5074356;28;20201;-65
2021/09/06 10:54:52;;;;;;;7.72;5.07;;;27.00;75.10;;;;;;5074027;28;20582;-64
2021/09/06 10:57:19;;;;;;;7.72;5.00;;;27.10;75.40;;;;;;5073913;28;20605;-64
2021/09/06 10:59:46;;;;;;;6.20;5.03;;;27.20;75.80;;;;;;5074037;28;20487;-64
2021/09/06 11:02:13;;;;;;;6.85;4.82;;;27.20;75.40;;;;;;5074751;28;20209;-66
2021/09/06 11:04:41;;;;;;;5.75;4.75;;;27.30;75.30;;;;;;5074520;28;20212;-65
2021/09/06 11:07:09;;;;;;;5.45;4.78;;;27.20;75.00;;;;;;5073943;28;20225;-65
2021/09/06 11:09:38;;;;;;;6.68;5.13;;;27.20;73.70;;;;;;5074357;28;20216;-65
2021/09/06 11:12:07;;;;;;;7.55;6.07;;;27.20;74.80;;;;;;5074266;28;20204;-65
2021/09/06 11:14:40;;;;;;;5.22;4.72;;;27.10;74.60;;;;;;5073800;28;20251;-66
2021/09/06 11:17:17;;;;;;;5.40;4.90;;;27.20;73.60;;;;;;5073973;28;20228;-66
2021/09/06 11:19:44;;;;;;;6.55;5.15;;;27.20;74.30;;;;;;5073638;28;20212;-65
2021/09/06 11:22:17;;;;;;;6.22;4.65;;;27.30;74.50;;;;;;5074178;28;20228;-66
2021/09/06 11:24:44;;;;;;;5.57;4.75;;;27.60;72.40;;;;;;5073763;28;20208;-65
2021/09/06 11:27:24;;;;;;;6.05;5.07;;;27.70;73.70;;;;;;5073511;28;20729;-65
2021/09/06 11:29:50;;;;;;;5.63;4.57;;;27.80;72.50;;;;;;5073491;28;20212;-66
2021/09/06 11:32:17;;;;;;;5.68;4.85;;;27.90;72.10;;;;;;5073781;28;20205;-66
2021/09/06 11:34:44;;;;;;;7.90;5.70;;;28.00;72.50;;;;;;5073551;28;20262;-66
2021/09/06 11:37:11;;;;;;;7.57;4.78;;;28.10;68.70;;;;;;5073819;28;20651;-66
2021/09/06 11:39:39;;;;;;;5.30;4.75;;;28.30;67.40;;;;;;5073454;28;20324;-66
2021/09/06 11:42:06;;;;;;;5.22;4.68;;;28.40;66.50;;;;;;5073630;28;20326;-66
2021/09/06 11:44:32;;;;;;;5.15;4.65;;;28.50;64.50;;;;;;5073171;28;20212;-64
2021/09/06 11:47:00;;;;;;;6.90;4.72;;;28.60;63.90;;;;;;5073181;28;20236;-65
2021/09/06 11:49:27;;;;;;;6.50;4.43;;;28.60;64.10;;;;;;5072842;28;20231;-65
2021/09/06 11:51:54;;;;;;;6.15;4.60;;;28.50;63.30;;;;;;5073208;28;20211;-65
2021/09/06 11:54:22;;;;;;;5.55;4.40;;;28.50;62.20;;;;;;5072930;28;20209;-64
2021/09/06 11:56:59;;;;;;;5.15;4.50;;;28.60;60.90;;;;;;5072605;28;20282;-65
2021/09/06 11:59:29;;;;;;;7.93;4.80;;;28.80;63.70;;;;;;5072786;28;20225;-65
2021/09/06 12:01:56;;;;;;;7.45;5.00;;;29.00;65.30;;;;;;5072837;28;20735;-65
2021/09/06 12:04:23;;;;;;;7.45;5.15;;;29.00;65.70;;;;;;5073039;28;20227;-65
2021/09/06 12:06:49;;;;;;;6.40;5.38;;;29.10;65.70;;;;;;5073199;28;20256;-64
2021/09/06 12:09:20;;;;;;;5.93;5.10;;;29.20;65.40;;;;;;5073104;28;20711;-65
2021/09/06 12:11:49;;;;;;;7.30;4.80;;;29.40;64.80;;;;;;5072997;28;20209;-63
2021/09/06 12:14:17;;;;;;;8.20;5.03;;;29.60;63.80;;;;;;5072960;28;20212;-64
2021/09/06 12:16:44;;;;;;;5.03;4.53;;;29.70;64.00;;;;;;5073146;28;20228;-65
2021/09/06 12:19:18;;;;;;;6.45;5.40;;;29.70;64.10;;;;;;5072397;28;20228;-65
2021/09/06 12:21:46;;;;;;;6.43;5.10;;;29.70;63.30;;;;;;5072701;28;20210;-65
2021/09/06 12:24:13;;;;;;;5.90;5.00;;;29.60;62.70;;;;;;5072375;28;20205;-65
2021/09/06 12:26:41;;;;;;;10.23;6.60;;;29.70;63.10;;;;;;5072140;28;20233;-66
2021/09/06 12:29:08;;;;;;;5.60;5.03;;;29.70;62.90;;;;;;5072490;28;20209;-66
2021/09/06 12:31:43;;;;;;;6.35;4.80;;;29.80;63.20;;;;;;5072324;28;20726;-65
2021/09/06 12:34:11;;;;;;;11.25;5.68;;;29.90;62.60;;;;;;5072299;28;20215;-66
2021/09/06 12:36:38;;;;;;;6.95;5.10;;;29.80;60.60;;;;;;5072152;28;20259;-64
2021/09/06 12:39:06;;;;;;;5.82;4.90;;;29.70;60.10;;;;;;5071735;28;20283;-65
2021/09/06 12:41:32;;;;;;;5.45;4.88;;;29.50;61.10;;;;;;5072463;28;20211;-65
2021/09/06 12:43:59;;;;;;;7.32;4.70;;;29.20;61.70;;;;;;5072049;28;20211;-65